Aviation Digital Data Service (ADDS)

Output produced by METARs form (2018 UTC 03 July 2015)
found at http://aviationweather.gov/adds/metars/
 
KLFT 031720Z 0318/0418 20009KT P6SM FEW040 
     FM040400 19004KT P6SM SCT015 BKN050 
     FM041300 23006KT P6SM VCSH SCT015 BKN040